createdAt,value
2018-04-22T03:01:00.334Z,989.56
2018-04-22T03:02:00.701Z,989.54
2018-04-22T03:03:00.177Z,989.55
2018-04-22T03:04:00.379Z,989.49
2018-04-22T03:05:00.485Z,989.46
2018-04-22T03:06:00.658Z,989.43
2018-04-22T03:07:00.793Z,989.41
2018-04-22T03:08:01.037Z,989.42
2018-04-22T03:09:01.171Z,989.37
2018-04-22T03:10:01.361Z,989.33
2018-04-22T03:11:01.526Z,989.37
2018-04-22T03:12:01.661Z,989.36
2018-04-22T03:13:01.829Z,989.30
2018-04-22T03:14:01.974Z,989.34
2018-04-22T03:15:02.125Z,989.31
2018-04-22T03:16:02.293Z,989.31
2018-04-22T03:17:02.434Z,989.28
2018-04-22T03:18:02.643Z,989.27
2018-04-22T03:19:02.814Z,989.25
2018-04-22T03:20:02.995Z,989.26
2018-04-22T03:21:03.151Z,989.21
2018-04-22T03:22:03.333Z,989.19
2018-04-22T03:23:03.461Z,989.15
2018-04-22T03:24:03.606Z,989.13
2018-04-22T03:25:03.738Z,989.13
2018-04-22T03:26:03.952Z,989.12
2018-04-22T03:27:04.170Z,989.10
2018-04-22T03:28:04.407Z,989.10
2018-04-22T03:29:04.532Z,989.10
2018-04-22T03:30:04.698Z,989.10
2018-04-22T03:31:04.821Z,989.09
2018-04-22T03:32:05.094Z,989.10
2018-04-22T03:33:05.214Z,989.09
2018-04-22T03:34:05.388Z,989.10
2018-04-22T03:35:05.522Z,989.06
2018-04-22T03:36:05.718Z,989.08
2018-04-22T03:37:05.843Z,989.13
2018-04-22T03:38:06.016Z,989.16
2018-04-22T03:39:06.244Z,989.15
2018-04-22T03:40:06.370Z,989.14
2018-04-22T03:41:06.449Z,989.12
2018-04-22T03:42:06.624Z,989.11
2018-04-22T03:43:06.831Z,989.12
2018-04-22T03:44:07.023Z,989.14
2018-04-22T03:45:07.100Z,989.13
2018-04-22T03:46:07.340Z,989.11
2018-04-22T03:47:07.492Z,989.10
2018-04-22T03:48:07.625Z,989.12
2018-04-22T03:49:07.762Z,989.11
2018-04-22T03:50:07.976Z,989.07
2018-04-22T03:51:08.081Z,989.09
2018-04-22T03:52:08.243Z,989.06
2018-04-22T03:53:08.429Z,989.11
2018-04-22T03:54:08.595Z,989.08
2018-04-22T03:55:08.772Z,989.11
2018-04-22T03:56:08.885Z,989.16
2018-04-22T03:57:09.096Z,989.10
2018-04-22T03:58:09.261Z,989.13
2018-04-22T03:59:09.440Z,989.12
2018-04-22T04:00:09.689Z,989.11
2018-04-22T04:01:09.760Z,989.07
2018-04-22T04:02:09.888Z,989.11
2018-04-22T04:03:10.003Z,989.11
2018-04-22T04:04:10.222Z,989.12
2018-04-22T04:05:10.413Z,989.09
2018-04-22T04:06:10.563Z,989.11
2018-04-22T04:07:10.759Z,989.07
2018-04-22T04:08:10.920Z,989.09
2018-04-22T04:09:11.072Z,989.11
2018-04-22T04:10:11.263Z,989.05
2018-04-22T04:11:11.376Z,989.11
2018-04-22T04:12:11.579Z,989.11
2018-04-22T04:13:11.740Z,989.13
2018-04-22T04:14:11.958Z,989.13
2018-04-22T04:15:12.014Z,989.13
2018-04-22T04:16:12.233Z,989.10
2018-04-22T04:17:12.354Z,989.09
2018-04-22T04:18:12.602Z,989.13
2018-04-22T04:19:12.662Z,989.13
2018-04-22T04:20:12.872Z,989.09
2018-04-22T04:21:13.067Z,989.12
2018-04-22T04:22:13.196Z,989.10
2018-04-22T04:23:13.400Z,989.10
2018-04-22T04:24:13.504Z,989.09
2018-04-22T04:25:13.719Z,989.10
2018-04-22T04:26:13.856Z,989.10
2018-04-22T04:27:13.957Z,989.11
2018-04-22T04:28:14.180Z,989.09
2018-04-22T04:29:14.335Z,989.10
2018-04-22T04:30:14.466Z,989.09
2018-04-22T04:31:14.635Z,989.05
2018-04-22T04:32:14.823Z,989.06
2018-04-22T04:33:14.966Z,989.07
2018-04-22T04:34:15.178Z,989.08
2018-04-22T04:35:15.265Z,989.10
2018-04-22T04:36:15.428Z,989.09
2018-04-22T04:37:15.678Z,989.08
2018-04-22T04:38:15.823Z,989.12
2018-04-22T04:39:15.940Z,989.11
2018-04-22T04:40:16.268Z,989.11
2018-04-22T04:43:11.056Z,989.14
2018-04-22T04:44:03.639Z,989.14
2018-04-22T04:45:03.951Z,989.09
2018-04-22T04:47:04.071Z,989.05
2018-04-22T04:48:02.485Z,989.01
2018-04-22T04:49:02.263Z,989.05
2018-04-22T04:50:02.611Z,989.04
2018-04-22T04:51:02.680Z,989.03
2018-04-22T04:52:02.843Z,989.06
2018-04-22T04:53:02.962Z,989.03
2018-04-22T04:54:03.094Z,989.00
2018-04-22T04:55:03.320Z,989.02
2018-04-22T04:56:03.571Z,989.05
2018-04-22T04:57:03.618Z,989.00
2018-04-22T04:58:03.802Z,988.98
2018-04-22T04:59:03.990Z,989.00
2018-04-22T05:00:04.160Z,988.95
2018-04-22T05:01:04.278Z,988.99
2018-04-22T05:02:04.872Z,988.99
2018-04-22T05:03:04.622Z,989.03
2018-04-22T05:04:04.969Z,989.02
2018-04-22T05:05:05.163Z,989.02
2018-04-22T05:06:05.325Z,989.00
2018-04-22T05:07:05.372Z,988.97
2018-04-22T05:08:05.527Z,988.91
2018-04-22T05:09:06.054Z,988.95
2018-04-22T05:10:06.039Z,988.97
2018-04-22T05:11:06.078Z,988.96
2018-04-22T05:12:06.356Z,988.93
2018-04-22T05:13:06.567Z,988.98
2018-04-22T05:14:06.573Z,988.93
2018-04-22T05:15:06.702Z,988.97
2018-04-22T05:16:06.983Z,988.98
2018-04-22T05:17:07.172Z,988.95
2018-04-22T05:18:07.299Z,989.01
2018-04-22T05:19:08.682Z,988.99
2018-04-22T05:20:09.068Z,988.94
2018-04-22T05:21:09.773Z,988.99
2018-04-22T05:22:08.405Z,989.00
2018-04-22T05:23:08.163Z,989.02
2018-04-22T05:24:08.397Z,989.02
2018-04-22T05:25:08.470Z,988.99
2018-04-22T05:26:08.601Z,988.99
2018-04-22T05:27:08.805Z,989.00
2018-04-22T05:28:09.015Z,989.03
2018-04-22T05:29:09.298Z,989.02
2018-04-22T05:30:09.269Z,988.99
2018-04-22T05:31:09.504Z,989.02
2018-04-22T05:32:09.612Z,989.01
2018-04-22T05:33:09.873Z,989.05
2018-04-22T05:34:09.994Z,989.03
2018-04-22T05:35:10.197Z,989.05
2018-04-22T05:36:12.590Z,989.01
2018-04-22T05:37:10.463Z,989.04
2018-04-22T05:38:10.660Z,989.04
2018-04-22T05:39:11.063Z,989.03
2018-04-22T05:41:58.607Z,989.02
2018-04-22T05:42:59.695Z,989.03
2018-04-22T05:43:57.735Z,989.00
2018-04-22T05:44:57.791Z,988.98
2018-04-22T05:45:57.741Z,988.99
2018-04-22T05:46:57.872Z,988.98
2018-04-22T05:47:58.004Z,988.99
2018-04-22T05:48:58.291Z,989.01
2018-04-22T05:49:58.933Z,988.95
2018-04-22T05:50:58.478Z,988.96
2018-04-22T05:51:58.676Z,988.96
2018-04-22T05:52:58.795Z,988.97
2018-04-22T05:53:59.035Z,988.96
2018-04-22T05:54:59.173Z,988.95
2018-04-22T05:55:59.474Z,988.91
2018-04-22T05:56:59.581Z,988.91
2018-04-22T05:57:59.744Z,988.93
2018-04-22T05:58:59.964Z,988.91
2018-04-22T06:00:00.154Z,988.93
2018-04-22T06:01:00.317Z,988.92
2018-04-22T06:02:00.470Z,988.93
2018-04-22T06:03:00.647Z,988.94
2018-04-22T06:04:00.809Z,988.96
2018-04-22T06:05:00.969Z,988.95
2018-04-22T06:06:01.147Z,988.98
2018-04-22T06:07:01.239Z,989.00
2018-04-22T06:08:01.468Z,988.95
2018-04-22T06:09:01.664Z,988.96
2018-04-22T06:10:01.826Z,988.94
2018-04-22T06:11:02.016Z,988.95
2018-04-22T06:12:02.125Z,988.89
2018-04-22T06:13:02.273Z,988.94
2018-04-22T06:14:02.482Z,989.01
2018-04-22T06:15:02.632Z,988.97
2018-04-22T06:16:02.776Z,989.01
2018-04-22T06:17:02.927Z,989.00
2018-04-22T06:18:03.089Z,989.00
2018-04-22T06:19:03.936Z,988.98
2018-04-22T06:20:03.432Z,988.94
2018-04-22T06:21:03.633Z,988.96
2018-04-22T06:22:03.751Z,988.89
2018-04-22T06:23:04.029Z,988.91
2018-04-22T06:24:04.093Z,988.85
2018-04-22T06:25:04.353Z,988.86
2018-04-22T06:26:04.480Z,988.85
2018-04-22T06:27:04.600Z,988.80
2018-04-22T06:28:04.719Z,988.79
2018-04-22T06:31:14.617Z,988.72
2018-04-22T06:34:03.974Z,988.71
2018-04-22T06:34:48.054Z,988.70
2018-04-22T06:35:44.303Z,988.68
2018-04-22T06:36:44.992Z,988.67
2018-04-22T06:37:43.824Z,988.67
2018-04-22T06:38:43.918Z,988.64
2018-04-22T06:39:44.121Z,988.66
2018-04-22T06:40:44.268Z,988.63
2018-04-22T06:41:44.388Z,988.61
2018-04-22T06:42:44.623Z,988.62
2018-04-22T06:43:44.748Z,988.63
2018-04-22T06:44:44.883Z,988.64
2018-04-22T06:45:45.108Z,988.62
2018-04-22T06:46:45.418Z,988.64
2018-04-22T06:47:45.415Z,988.63
2018-04-22T06:48:45.594Z,988.60
2018-04-22T06:49:46.031Z,988.59
2018-04-22T06:50:45.946Z,988.60
2018-04-22T06:51:46.105Z,988.60
2018-04-22T06:52:46.346Z,988.57
2018-04-22T06:53:46.454Z,988.59
2018-04-22T06:54:46.689Z,988.54
2018-04-22T06:55:46.750Z,988.52
2018-04-22T06:56:46.975Z,988.54
2018-04-22T06:57:47.138Z,988.56
2018-04-22T06:58:47.357Z,988.54
2018-04-22T06:59:47.433Z,988.50
2018-04-22T07:00:47.546Z,988.50
2018-04-22T07:01:47.823Z,988.51
2018-04-22T07:02:47.924Z,988.54
2018-04-22T07:03:48.072Z,988.51
2018-04-22T07:04:48.318Z,988.51
2018-04-22T07:05:48.463Z,988.49
2018-04-22T07:06:48.678Z,988.53
2018-04-22T07:07:48.805Z,988.50
2018-04-22T07:08:48.935Z,988.47
2018-04-22T07:09:49.152Z,988.47
2018-04-22T07:10:49.249Z,988.48
2018-04-22T07:11:49.552Z,988.49
2018-04-22T07:12:49.730Z,988.46
2018-04-22T07:13:50.049Z,988.46
2018-04-22T07:14:50.059Z,988.45
2018-04-22T07:15:50.330Z,988.48
2018-04-22T07:16:50.305Z,988.47
2018-04-22T07:17:50.601Z,988.50
2018-04-22T07:18:51.017Z,988.48
2018-04-22T07:19:50.754Z,988.47
2018-04-22T07:20:50.955Z,988.44
2018-04-22T07:21:51.125Z,988.44
2018-04-22T07:22:51.969Z,988.48
2018-04-22T07:32:22.389Z,988.49
2018-04-22T07:35:02.003Z,988.48
2018-04-22T07:35:55.916Z,988.49
2018-04-22T07:38:58.658Z,988.48
2018-04-22T07:39:31.741Z,988.51
2018-04-22T07:40:31.778Z,988.51
2018-04-22T07:41:31.786Z,988.50
2018-04-22T07:42:32.132Z,988.51
2018-04-22T07:43:37.278Z,988.52
2018-04-22T07:44:35.617Z,988.50
2018-04-22T07:45:37.440Z,988.54
2018-04-22T07:46:35.117Z,988.50
2018-04-22T07:47:33.801Z,988.48
2018-04-22T07:48:33.251Z,988.49
2018-04-22T07:49:32.075Z,988.47
2018-04-22T07:50:31.275Z,988.39
2018-04-22T07:55:17.138Z,988.40
2018-04-22T08:00:33.656Z,988.39
2018-04-22T08:01:34.755Z,988.38
2018-04-22T08:02:34.129Z,988.46
2018-04-22T08:03:33.239Z,988.40
2018-04-22T08:04:39.959Z,988.41
2018-04-22T08:05:35.445Z,988.40
2018-04-22T08:06:33.252Z,988.40
2018-04-22T08:07:38.286Z,988.41
2018-04-22T08:08:35.854Z,988.45
2018-04-22T08:15:41.922Z,988.38
2018-04-22T08:23:26.257Z,988.32
2018-04-22T08:24:38.944Z,988.33
2018-04-22T08:25:30.484Z,988.30
2018-04-22T08:26:23.551Z,988.32
2018-04-22T08:27:30.793Z,988.27
2018-04-22T08:28:23.619Z,988.32
2018-04-22T08:29:36.425Z,988.31
2018-04-22T08:30:36.838Z,988.28
2018-04-22T08:38:19.678Z,988.23
2018-04-22T08:39:10.305Z,988.23
2018-04-22T08:40:10.414Z,988.24
2018-04-22T08:43:14.881Z,988.15
2018-04-22T08:44:13.355Z,988.15
2018-04-22T08:47:26.119Z,988.20
2018-04-22T08:48:28.509Z,988.20
2018-04-22T08:49:27.285Z,988.18
2018-04-22T08:50:27.010Z,988.20
2018-04-22T08:51:26.853Z,988.21
2018-04-22T08:52:28.206Z,988.20
2018-04-22T08:53:34.194Z,988.20
2018-04-22T08:57:52.461Z,988.31
2018-04-22T08:58:51.187Z,988.35
2018-04-22T08:59:44.503Z,988.26
2018-04-22T09:04:23.148Z,988.25
2018-04-22T09:05:25.000Z,988.30
2018-04-22T09:28:52.878Z,988.08
2018-04-22T09:30:00.066Z,988.11
2018-04-22T09:38:57.539Z,988.28
2018-04-22T09:39:49.042Z,988.33
2018-04-22T09:40:47.680Z,988.38
2018-04-22T09:41:47.291Z,988.30
2018-04-22T09:42:47.657Z,988.27
2018-04-22T09:43:47.618Z,988.21
2018-04-22T09:44:48.045Z,988.14
2018-04-22T09:45:48.121Z,988.14
2018-04-22T09:46:48.152Z,988.13
2018-04-22T09:47:48.188Z,988.11
2018-04-22T09:48:48.593Z,988.11
2018-04-22T09:49:49.117Z,988.10
2018-04-22T09:50:48.852Z,988.10
2018-04-22T09:51:48.970Z,988.06
2018-04-22T09:52:49.125Z,988.02
2018-04-22T09:53:49.578Z,988.04
2018-04-22T09:54:49.496Z,988.02
2018-04-22T09:55:49.691Z,987.92
2018-04-22T09:56:49.970Z,987.94
2018-04-22T09:57:50.556Z,987.91
2018-04-22T09:58:52.208Z,987.91
2018-04-22T09:59:50.300Z,987.93
2018-04-22T10:00:50.525Z,987.89
2018-04-22T10:01:50.751Z,987.84
2018-04-22T10:02:50.821Z,987.82
2018-04-22T10:03:50.988Z,987.83
2018-04-22T10:04:51.217Z,987.85
2018-04-22T10:05:51.520Z,987.79
2018-04-22T10:06:51.521Z,987.82
2018-04-22T10:07:51.832Z,987.81
2018-04-22T10:08:51.923Z,987.78
2018-04-22T10:09:52.809Z,987.77
2018-04-22T10:10:52.350Z,987.69
2018-04-22T10:11:52.680Z,987.66
2018-04-22T10:12:52.803Z,987.65
2018-04-22T10:13:53.619Z,987.71
2018-04-22T10:14:53.563Z,987.67
2018-04-22T10:15:53.255Z,987.66
2018-04-22T10:16:53.435Z,987.60
2018-04-22T10:17:53.659Z,987.62
2018-04-22T10:18:53.799Z,987.62
2018-04-22T10:19:53.958Z,987.57
2018-04-22T10:20:54.157Z,987.57
2018-04-22T10:21:54.399Z,987.54
2018-04-22T10:22:54.531Z,987.56
2018-04-22T10:23:54.785Z,987.53
2018-04-22T10:24:54.884Z,987.57
2018-04-22T10:25:55.033Z,987.49
2018-04-22T10:26:55.337Z,987.52
2018-04-22T10:27:57.130Z,987.53
2018-04-22T10:28:55.672Z,987.57
2018-04-22T10:29:55.841Z,987.78
2018-04-22T10:30:56.017Z,987.83
2018-04-22T10:31:56.229Z,987.79
2018-04-22T10:32:56.440Z,987.82
2018-04-22T10:33:56.545Z,987.77
2018-04-22T10:36:29.985Z,987.65
2018-04-22T10:37:31.479Z,987.36
2018-04-22T10:38:30.326Z,987.17
2018-04-22T10:39:30.383Z,987.03
2018-04-22T10:40:30.675Z,986.95
2018-04-22T10:41:31.735Z,986.92
2018-04-22T10:42:44.076Z,986.85
2018-04-22T10:43:34.156Z,986.84
2018-04-22T10:44:33.709Z,986.90
2018-04-22T10:45:34.859Z,987.11
2018-04-22T10:46:43.281Z,987.35
2018-04-22T10:47:34.605Z,987.26
2018-04-22T10:48:33.869Z,987.17
2018-04-22T10:51:09.028Z,987.06
2018-04-22T10:52:09.154Z,987.02
2018-04-22T10:53:08.837Z,986.99
2018-04-22T10:54:07.699Z,986.97
2018-04-22T10:55:07.543Z,987.02
2018-04-22T10:56:27.174Z,986.94
2018-04-22T10:57:12.672Z,987.05
2018-04-22T10:58:11.944Z,987.01
2018-04-22T10:59:08.930Z,987.16
2018-04-22T11:01:19.502Z,987.24
2018-04-22T11:02:10.977Z,987.29
2018-04-22T11:03:11.810Z,987.28
2018-04-22T11:04:11.822Z,987.28
2018-04-22T11:05:10.608Z,987.14
2018-04-22T11:07:27.626Z,987.20
2018-04-22T11:08:12.138Z,987.13
2018-04-22T11:09:12.635Z,987.13
2018-04-22T11:10:10.297Z,987.08
2018-04-22T11:11:10.498Z,987.25
2018-04-22T11:12:10.652Z,987.33
2018-04-22T11:13:11.187Z,987.39
2018-04-22T11:25:35.879Z,987.56
2018-04-22T11:26:33.328Z,987.44
2018-04-22T11:40:28.083Z,987.00
2018-04-22T11:41:16.381Z,987.03
2018-04-22T11:42:19.722Z,986.97
2018-04-22T11:52:44.829Z,986.61
2018-04-22T12:04:48.957Z,986.36
2018-04-22T12:11:50.974Z,986.58
2018-04-22T12:16:29.633Z,986.80
2018-04-22T12:17:32.399Z,986.66
2018-04-22T12:18:28.433Z,986.70
2018-04-22T12:19:41.970Z,986.89
2018-04-22T12:20:32.390Z,986.21
2018-04-22T12:21:31.447Z,986.12
2018-04-22T12:22:28.994Z,986.10
2018-04-22T12:25:18.089Z,986.49
2018-04-22T12:27:31.163Z,986.48
2018-04-22T12:42:25.070Z,985.96
2018-04-22T12:50:14.612Z,986.13
2018-04-22T13:03:56.996Z,986.11
2018-04-22T13:04:52.752Z,986.07
2018-04-22T13:05:45.364Z,986.00
2018-04-22T13:06:46.779Z,985.96
2018-04-22T13:07:44.919Z,986.02
2018-04-22T13:08:43.080Z,985.99
2018-04-22T13:31:39.037Z,985.72
2018-04-22T13:38:00.645Z,985.47
2018-04-22T13:40:03.160Z,985.41
2018-04-22T13:40:59.951Z,985.49
2018-04-22T13:42:00.099Z,985.47
2018-04-22T13:43:00.266Z,985.43
2018-04-22T13:44:00.345Z,985.41
2018-04-22T13:45:00.565Z,985.44
2018-04-22T13:46:00.707Z,985.44
2018-04-22T13:47:01.089Z,985.50
2018-04-22T13:48:01.119Z,985.46
2018-04-22T13:49:01.777Z,985.40
2018-04-22T13:50:01.589Z,985.42
2018-04-22T13:51:01.804Z,985.38
2018-04-22T13:52:01.973Z,985.36
2018-04-22T13:53:07.670Z,985.36
2018-04-22T13:54:02.366Z,985.32
2018-04-22T13:55:02.952Z,985.28
2018-04-22T13:56:02.738Z,985.25
2018-04-22T13:57:05.532Z,985.24
2018-04-22T13:58:03.762Z,985.17
2018-04-22T13:59:14.706Z,985.21
2018-04-22T14:08:59.385Z,985.09
2018-04-22T14:10:23.765Z,985.06
2018-04-22T14:11:04.762Z,985.05
2018-04-22T15:06:49.386Z,984.48
2018-04-22T15:16:10.880Z,984.45
2018-04-22T15:17:12.936Z,984.48
2018-04-22T15:18:08.614Z,984.49
2018-04-22T15:19:07.878Z,984.48
2018-04-22T15:20:08.371Z,984.52
2018-04-22T15:22:52.462Z,984.48
2018-04-22T15:49:04.239Z,984.26
2018-04-22T15:50:06.848Z,984.23
2018-04-22T15:51:07.243Z,984.25
2018-04-22T15:52:12.215Z,984.24
2018-04-22T15:56:44.717Z,984.25
2018-04-22T16:08:53.776Z,984.30
2018-04-22T16:11:41.621Z,984.28
2018-04-22T16:41:01.449Z,984.15
2018-04-22T16:44:14.454Z,984.01
2018-04-22T16:48:14.416Z,983.95
2018-04-22T17:56:33.611Z,983.75
2018-04-22T18:24:18.604Z,983.71
2018-04-22T18:27:25.365Z,983.76
2018-04-22T18:28:24.760Z,983.77
2018-04-22T18:29:23.907Z,983.80
2018-04-22T18:30:23.823Z,983.78
2018-04-22T19:05:36.372Z,984.58
2018-04-22T19:06:46.828Z,984.44
2018-04-22T19:07:37.218Z,984.13
2018-04-22T19:08:37.256Z,984.01
2018-04-22T19:09:37.899Z,983.90
2018-04-22T19:10:37.246Z,983.89
2018-04-22T19:11:37.540Z,983.89
2018-04-22T19:12:35.631Z,983.87
2018-04-22T19:13:35.594Z,983.90
2018-04-22T19:14:35.922Z,984.02
2018-04-22T19:15:35.992Z,984.03
2018-04-22T19:16:36.118Z,983.98
2018-04-22T19:17:36.311Z,984.04
2018-04-22T19:18:36.495Z,984.06
2018-04-22T19:19:36.594Z,984.04
2018-04-22T19:20:36.799Z,984.05
2018-04-22T19:21:36.933Z,984.08
2018-04-22T19:22:37.123Z,984.09
2018-04-22T19:23:37.239Z,984.18
2018-04-22T19:24:37.413Z,984.22
2018-04-22T19:25:37.570Z,984.30
2018-04-22T19:26:37.722Z,984.32
2018-04-22T19:27:37.910Z,984.35
2018-04-22T19:28:38.138Z,984.36
2018-04-22T19:29:38.254Z,984.45
2018-04-22T19:30:38.577Z,984.45
2018-04-22T19:31:38.607Z,984.44
2018-04-22T19:32:38.808Z,984.43
2018-04-22T19:33:38.928Z,984.44
2018-04-22T19:34:39.081Z,984.49
2018-04-22T19:35:39.263Z,984.50
2018-04-22T19:36:39.442Z,984.51
2018-04-22T19:37:39.730Z,984.47
2018-04-22T19:38:39.843Z,984.51
2018-04-22T19:39:39.989Z,984.51
2018-04-22T19:40:40.145Z,984.48
2018-04-22T19:41:40.396Z,984.52
2018-04-22T19:42:40.516Z,984.55
2018-04-22T19:43:40.609Z,984.54
2018-04-22T19:44:40.830Z,984.53
2018-04-22T19:45:41.009Z,984.46
2018-04-22T19:46:41.152Z,984.49
2018-04-22T19:47:41.283Z,984.44
2018-04-22T19:48:41.527Z,984.46
2018-04-22T19:49:41.646Z,984.44
2018-04-22T19:50:41.814Z,984.46
2018-04-22T19:51:41.977Z,984.49
2018-04-22T19:52:42.207Z,984.52
2018-04-22T19:53:42.404Z,984.57
2018-04-22T19:54:42.467Z,984.60
2018-04-22T19:55:42.624Z,984.61
2018-04-22T19:56:42.865Z,984.64
2018-04-22T19:57:42.989Z,984.66
2018-04-22T19:58:43.208Z,984.64
2018-04-22T19:59:43.329Z,984.66
2018-04-22T20:00:43.428Z,984.70
2018-04-22T20:01:43.701Z,984.72
2018-04-22T20:02:43.851Z,984.75
2018-04-22T20:03:43.953Z,984.79
2018-04-22T20:04:44.170Z,984.83
2018-04-22T20:05:44.338Z,984.85
2018-04-22T20:06:44.566Z,984.86
2018-04-22T20:07:44.681Z,984.81
2018-04-22T20:08:44.819Z,984.80
2018-04-22T20:09:44.953Z,984.78
2018-04-22T20:10:45.176Z,984.82
2018-04-22T20:11:45.406Z,984.83
2018-04-22T20:12:45.509Z,984.80
2018-04-22T20:13:45.640Z,984.80
2018-04-22T20:14:45.813Z,984.85
2018-04-22T20:15:46.041Z,984.85
2018-04-22T20:16:46.193Z,984.85
2018-04-22T20:17:46.337Z,984.86
2018-04-22T20:18:46.544Z,984.87
2018-04-22T20:19:46.668Z,984.87
2018-04-22T20:20:46.852Z,984.89
2018-04-22T20:21:47.046Z,984.89
2018-04-22T20:22:47.264Z,984.91
2018-04-22T20:23:47.403Z,984.93
2018-04-22T20:24:47.572Z,984.94
2018-04-22T20:25:47.675Z,984.93
2018-04-22T20:26:47.802Z,984.97
2018-04-22T20:27:47.995Z,984.99
2018-04-22T20:28:48.215Z,984.93
2018-04-22T20:29:48.460Z,984.93
2018-04-22T20:30:48.701Z,984.93
2018-04-22T20:31:48.931Z,984.95
2018-04-22T20:32:49.047Z,984.93
2018-04-22T20:33:49.207Z,984.95
2018-04-22T20:34:49.424Z,984.93
2018-04-22T20:35:49.661Z,984.91
2018-04-22T20:36:49.850Z,984.99
2018-04-22T20:37:50.059Z,984.95
2018-04-22T20:38:50.342Z,984.91
2018-04-22T20:39:50.348Z,984.95
2018-04-22T20:40:51.766Z,984.92
2018-04-22T20:41:50.754Z,984.96
2018-04-22T20:42:50.930Z,984.92
2018-04-22T20:43:51.143Z,984.91
2018-04-22T20:44:51.356Z,984.96
2018-04-22T20:45:51.501Z,984.92
2018-04-22T20:46:51.673Z,984.95
2018-04-22T20:47:52.122Z,985.01
2018-04-22T20:48:52.170Z,984.99
2018-04-22T20:49:53.124Z,984.96
2018-04-22T20:50:52.565Z,984.96
2018-04-22T20:51:52.574Z,985.02
2018-04-22T20:52:52.678Z,985.05
2018-04-22T20:53:53.194Z,985.02
2018-04-22T20:54:53.111Z,985.02
2018-04-22T20:55:53.408Z,984.97
2018-04-22T20:56:53.352Z,985.00
2018-04-22T20:57:53.623Z,984.99
2018-04-22T20:58:53.730Z,985.01
2018-04-22T20:59:53.920Z,984.98
2018-04-22T21:00:54.107Z,984.98
2018-04-22T21:01:54.628Z,984.96
2018-04-22T21:02:54.670Z,984.94
2018-04-22T21:03:54.698Z,984.95
2018-04-22T21:04:54.792Z,984.95
2018-04-22T21:05:54.917Z,984.97
2018-04-22T21:06:55.174Z,984.98
2018-04-22T21:07:55.278Z,984.99
2018-04-22T21:08:55.451Z,984.98
2018-04-22T21:09:55.746Z,984.96
2018-04-22T21:10:56.379Z,984.95
2018-04-22T21:11:56.248Z,984.96
2018-04-22T21:12:56.274Z,984.99
2018-04-22T21:13:57.565Z,984.95
2018-04-22T21:20:02.939Z,984.97
2018-04-22T21:21:04.814Z,984.97
2018-04-22T21:29:32.321Z,985.05
2018-04-22T21:43:23.987Z,985.13
